Data for 04/19/2016

Time Sea-Level Adjusted Pressure Absolute Pressure Temperature Relative Humidity Dew Point   
(mb) (inHg) (mb) (inHg) (C) (F) (%) (C) (F)
00:05 1025 30.27 854 25.22 6.4 43.4 53 -2.4 27.7
00:10 1025 30.27 854 25.22 6.4 43.5 54 -2.3 27.8
00:15 1025 30.27 854 25.22 6.3 43.3 54 -2.2 28
00:20 1025 30.27 854 25.22 6.1 43 54 -2.4 27.7
00:25 1025 30.27 854 25.22 6 42.9 55 -2.4 27.7
00:30 1025 30.27 854 25.22 6 42.8 54 -2.5 27.5
00:35 1025 30.27 854 25.22 6 42.8 54 -2.6 27.4
00:40 1025 30.27 854 25.22 6.1 42.9 54 -2.7 27.2
00:45 1025 30.27 854 25.22 6 42.9 54 -2.5 27.5
00:50 1025 30.27 854 25.22 6 42.9 54 -2.5 27.6
00:55 1025 30.27 854 25.22 6.2 43.1 54 -2.5 27.5
01:00 1025 30.27 854 25.22 6.2 43.2 54 -2.4 27.7
01:05 1025 30.27 854 25.22 6.2 43.2 55 -2.2 28
01:10 1025 30.27 854 25.22 6.1 43.1 55 -2.1 28.1
01:15 1024 30.24 854 25.22 6.1 42.9 56 -2.1 28.3
01:20 1024 30.24 854 25.22 6 42.8 56 -2 28.3
01:25 1024 30.24 854 25.22 6 42.9 56 -2 28.4
01:30 1024 30.24 854 25.22 6 42.9 56 -2 28.5
01:35 1024 30.24 854 25.22 6 42.8 57 -1.9 28.6
01:40 1024 30.24 853 25.19 6 42.8 57 -2 28.5
01:45 1024 30.24 853 25.19 6.1 43 56 -2 28.4
01:50 1024 30.24 853 25.19 6.1 43 56 -2 28.4
01:55 1024 30.24 853 25.19 6.1 43 57 -1.8 28.8
02:00 1024 30.24 853 25.19 6 42.8 57 -1.8 28.8
02:05 1024 30.24 853 25.19 6 42.8 57 -1.9 28.5
02:10 1024 30.24 853 25.19 6.1 43 56 -2 28.4
02:15 1024 30.24 853 25.19 6.1 43.1 56 -1.9 28.5
02:20 1024 30.24 853 25.19 6.2 43.1 56 -1.9 28.6
02:25 1024 30.24 853 25.19 6.1 43.1 57 -1.8 28.7
02:30 1024 30.24 853 25.19 6 42.9 57 -1.8 28.8
02:35 1024 30.24 853 25.19 6 42.8 57 -1.8 28.8
02:40 1024 30.24 853 25.19 6 42.7 58 -1.7 28.9
02:45 1024 30.24 853 25.19 5.9 42.6 58 -1.7 28.9
02:50 1024 30.24 853 25.19 5.9 42.6 58 -1.7 29
02:55 1024 30.24 853 25.19 5.8 42.5 58 -1.7 29
03:00 1024 30.24 853 25.19 5.8 42.5 59 -1.6 29.1
03:05 1024 30.24 853 25.19 5.7 42.3 60 -1.5 29.3
03:10 1024 30.24 853 25.19 5.6 42 60 -1.5 29.4
03:15 1024 30.24 853 25.19 5.5 41.9 60 -1.6 29.1
03:20 1024 30.24 853 25.19 5.5 41.9 60 -1.6 29
03:25 1024 30.24 853 25.19 5.5 42 59 -1.7 28.9
03:30 1024 30.24 853 25.19 5.6 42 59 -1.7 28.9
03:35 1024 30.24 853 25.19 5.6 42.1 58 -1.9 28.6
03:40 1024 30.24 853 25.19 5.7 42.3 58 -1.8 28.8
03:45 1024 30.24 853 25.19 5.7 42.3 58 -1.8 28.7
03:50 1024 30.24 853 25.19 5.8 42.4 58 -1.8 28.7
03:55 1024 30.24 853 25.19 5.8 42.4 58 -1.8 28.7
04:00 1024 30.24 853 25.19 5.8 42.4 58 -1.8 28.8
04:05 1024 30.24 853 25.19 5.8 42.4 58 -1.7 28.9
04:10 1024 30.24 853 25.19 5.8 42.4 59 -1.7 29
04:15 1024 30.24 853 25.19 5.7 42.3 60 -1.4 29.5
04:20 1024 30.24 853 25.19 5.7 42.3 60 -1.5 29.3
04:25 1024 30.24 853 25.19 5.8 42.4 60 -1.5 29.3
04:30 1024 30.24 853 25.19 5.7 42.3 60 -1.4 29.4
04:35 1024 30.24 853 25.19 5.6 42.1 61 -1.3 29.6
04:40 1024 30.24 853 25.19 5.5 42 61 -1.3 29.6
04:45 1024 30.24 853 25.19 5.4 41.8 62 -1.1 29.9
04:50 1024 30.24 853 25.19 5.4 41.7 62 -1.2 29.8
04:55 1024 30.24 853 25.19 5.4 41.7 63 -1.1 29.9
05:00 1024 30.24 853 25.19 5.4 41.7 63 -1.1 30.1
05:05 1024 30.24 853 25.19 5.4 41.6 62 -1.3 29.7
05:10 1024 30.24 853 25.19 5.4 41.7 62 -1.4 29.5
05:15 1024 30.24 853 25.19 5.4 41.8 62 -1.2 29.8
05:20 1024 30.24 853 25.19 5.5 41.8 61 -1.5 29.3
05:25 1023 30.21 853 25.19 5.5 41.9 63 -1 30.1
05:30 1023 30.21 853 25.19 5.5 41.9 64 -0.9 30.5
05:35 1023 30.21 853 25.19 5.5 41.9 63 -0.9 30.3
05:40 1023 30.21 853 25.19 5.5 42 63 -0.8 30.5
05:45 1023 30.21 853 25.19 5.5 41.9 64 -0.8 30.6
05:50 1023 30.21 853 25.19 5.4 41.7 63 -1 30.3
05:55 1023 30.21 853 25.19 5.6 42.1 61 -1.3 29.7
06:00 1023 30.21 853 25.19 6.1 43 58 -1.6 29.2
06:05 1023 30.21 853 25.19 6.7 44.1 57 -1.3 29.7
06:10 1023 30.21 853 25.19 7.4 45.2 57 -0.7 30.7
06:15 1023 30.21 853 25.19 7.4 45.3 58 -0.3 31.4
06:20 1023 30.21 852 25.16 7.4 45.4 59 -0 32
06:25 1023 30.21 853 25.19 7.3 45.1 59 -0.2 31.6
06:30 1023 30.21 853 25.19 7.5 45.5 58 -0.3 31.4
06:35 1023 30.21 853 25.19 7.3 45.1 58 -0.3 31.4
06:40 1024 30.24 853 25.19 6.8 44.2 56 -1.3 29.7
06:45 1024 30.24 853 25.19 7 44.5 55 -1.5 29.3
06:50 1024 30.24 853 25.19 6.4 43.6 57 -1.4 29.6
06:55 1024 30.24 853 25.19 6.3 43.4 56 -1.7 28.9
07:00 1024 30.24 853 25.19 7.1 44.8 54 -1.4 29.4
07:05 1024 30.24 853 25.19 7.8 46 52 -1.3 29.6
07:10 1024 30.24 853 25.19 7.8 46 52 -1.4 29.5
07:15 1024 30.24 853 25.19 7.8 46.1 51 -1.6 29.1
07:20 1024 30.24 853 25.19 8.1 46.7 51 -1.5 29.4
07:25 1024 30.24 853 25.19 8.2 46.8 50 -1.6 29.2
07:30 1023 30.21 853 25.19 8.1 46.6 51 -1.5 29.3
07:35 1023 30.21 853 25.19 8.3 47 51 -1.3 29.7
07:40 1023 30.21 853 25.19 8.3 46.9 52 -1.1 30.1
07:45 1023 30.21 853 25.19 8.5 47.3 50 -1.3 29.7
07:50 1023 30.21 853 25.19 9.1 48.3 49 -1.1 30
07:55 1023 30.21 852 25.16 9.2 48.5 48 -1.3 29.6
08:00 1023 30.21 852 25.16 9.7 49.5 45 -1.7 28.9
08:05 1023 30.21 853 25.19 9.3 48.7 46 -1.6 29.1
08:10 1023 30.21 852 25.16 9.2 48.6 44 -2.2 28
08:15 1023 30.21 852 25.16 9.3 48.7 44 -2.4 27.7
08:20 1023 30.21 852 25.16 9 48.1 44 -2.5 27.4
08:25 1023 30.21 852 25.16 9.3 48.8 42 -3 26.6
08:30 1023 30.21 852 25.16 10.4 50.7 40 -2.5 27.4
08:35 1023 30.21 852 25.16 11.3 52.3 37 -3 26.6
08:40 1023 30.21 852 25.16 11.6 52.8 37 -2.6 27.3
08:45 1023 30.21 852 25.16 10.6 51 38 -3.1 26.4
08:50 1023 30.21 852 25.16 11 51.8 38 -2.6 27.4
08:55 1023 30.21 852 25.16 11.4 52.5 36 -3.2 26.2
09:00 1023 30.21 852 25.16 11.8 53.2 33 -3.8 25.2
09:05 1023 30.21 852 25.16 11.5 52.6 34 -3.9 24.9
09:10 1023 30.21 852 25.16 11.5 52.8 35 -3.3 26
09:15 1023 30.21 852 25.16 11.7 53.1 33 -4.1 24.6
09:20 1023 30.21 852 25.16 12.1 53.8 33 -3.6 25.6
09:25 1023 30.21 852 25.16 12 53.6 34 -3.2 26.3
09:30 1023 30.21 852 25.16 11.8 53.2 34 -3.5 25.8
09:35 1023 30.21 852 25.16 12.6 54.6 31 -3.9 24.9
09:40 1023 30.21 852 25.16 12.6 54.6 32 -3.6 25.5
09:45 1023 30.21 852 25.16 12.7 54.8 32 -3.6 25.6
09:50 1023 30.21 852 25.16 13.1 55.6 32 -3.1 26.4
09:55 1023 30.21 852 25.16 12.9 55.3 32 -3.5 25.8
10:00 1022 30.18 852 25.16 13.1 55.7 31 -3.6 25.6
10:05 1022 30.18 852 25.16 13.8 56.9 30 -3.6 25.6
10:10 1022 30.18 852 25.16 13.9 57 30 -3.5 25.7
10:15 1022 30.18 852 25.16 13.8 56.8 30 -3.3 26
10:20 1022 30.18 852 25.16 13.7 56.7 30 -3.5 25.8
10:25 1022 30.18 852 25.16 13.5 56.3 31 -3.2 26.3
10:30 1022 30.18 852 25.16 14.1 57.3 31 -2.9 26.8
10:35 1022 30.18 851 25.13 14.2 57.5 32 -2.3 27.9
10:40 1022 30.18 851 25.13 13.3 55.9 32 -3.1 26.4
10:45 1022 30.18 851 25.13 13.4 56.1 33 -2.5 27.5
10:50 1022 30.18 851 25.13 13.1 55.5 33 -2.7 27.2
10:55 1022 30.18 851 25.13 13.3 55.9 33 -2.6 27.3
11:00 1022 30.18 851 25.13 14.1 57.3 33 -2.1 28.2
11:05 1022 30.18 851 25.13 14.8 58.6 31 -2.2 28
11:10 1022 30.18 851 25.13 15.4 59.8 30 -2 28.4
11:15 1022 30.18 851 25.13 16 60.8 30 -1.5 29.2
11:20 1022 30.18 851 25.13 15.6 60 31 -1.4 29.4
11:25 1022 30.18 851 25.13 15.4 59.7 31 -1.5 29.2
11:30 1022 30.18 851 25.13 15.1 59.2 31 -1.6 29
11:35 1022 30.18 851 25.13 15.2 59.4 32 -1.4 29.5
11:40 1021 30.15 851 25.13 15.1 59.1 32 -1.4 29.5
11:45 1021 30.15 851 25.13 16.2 61.1 30 -1.5 29.3
11:50 1021 30.15 851 25.13 16.2 61.2 31 -0.7 30.7
11:55 1021 30.15 850 25.1 16.1 61 31 -1.1 30
12:00 1021 30.15 850 25.1 16.3 61.4 30 -1 30.2
12:05 1021 30.15 850 25.1 16.7 62.1 30 -0.6 30.8
12:10 1021 30.15 850 25.1 16.1 60.9 32 -0.7 30.7
12:15 1021 30.15 850 25.1 16 60.7 31 -0.9 30.3
12:20 1021 30.15 850 25.1 16.6 61.9 30 -1 30.1
12:25 1021 30.15 850 25.1 16.3 61.3 32 -0.5 31
12:30 1021 30.15 850 25.1 15.6 60 33 -0.6 30.9
12:35 1021 30.15 850 25.1 15.9 60.7 32 -0.7 30.7
12:40 1021 30.15 850 25.1 16.3 61.4 31 -0.5 31.1
12:45 1020 30.12 850 25.1 17.2 63 30 -0.2 31.7
12:50 1020 30.12 850 25.1 17 62.7 31 0 32
12:55 1020 30.12 850 25.1 16.9 62.4 33 0.8 33.5
13:00 1020 30.12 850 25.1 16.4 61.5 33 0.3 32.5
13:05 1020 30.12 849 25.07 16.9 62.4 32 0 32
13:10 1020 30.12 849 25.07 16.9 62.3 33 0.4 32.7
13:15 1020 30.12 849 25.07 16.3 61.3 34 0.4 32.7
13:20 1020 30.12 849 25.07 16 60.8 34 0.2 32.3
13:25 1020 30.12 849 25.07 16.9 62.5 31 -0.1 31.9
13:30 1020 30.12 849 25.07 18 64.5 30 0.5 32.9
13:35 1020 30.12 849 25.07 18.3 64.9 29 -0 32
13:40 1020 30.12 849 25.07 17 62.6 33 0.6 33
13:45 1020 30.12 849 25.07 16.4 61.6 32 -0.3 31.5
13:50 1020 30.12 849 25.07 17.6 63.7 30 -0.1 31.8
13:55 1020 30.12 849 25.07 18.1 64.5 30 0.5 32.9
14:00 1020 30.12 849 25.07 18.3 64.9 29 0 32.1
14:05 1020 30.12 849 25.07 18.8 65.8 29 0.4 32.8
14:10 1020 30.12 849 25.07 18.9 66.1 29 0.7 33.2
14:15 1020 30.12 849 25.07 17.4 63.3 32 0.6 33.1
14:20 1020 30.12 849 25.07 17 62.5 33 0.5 32.9
14:25 1020 30.12 849 25.07 16.9 62.4 33 0.6 33.1
14:30 1019 30.09 849 25.07 17.2 63 31 0 32.1
14:35 1019 30.09 849 25.07 17.5 63.5 31 0.1 32.2
14:40 1019 30.09 849 25.07 17.8 64 30 0.1 32.2
14:45 1019 30.09 849 25.07 17.5 63.5 31 0.4 32.7
14:50 1019 30.09 848 25.04 18 64.4 30 0.3 32.6
14:55 1019 30.09 848 25.04 18.5 65.3 28 -0.3 31.4
15:00 1019 30.09 848 25.04 18.9 66 28 0.4 32.7
15:05 1019 30.09 848 25.04 18.6 65.5 29 0.4 32.7
15:10 1019 30.09 848 25.04 18.4 65.2 29 0.3 32.6
15:15 1019 30.09 848 25.04 18.8 65.8 28 0 32.1
15:20 1019 30.09 848 25.04 18.8 65.8 30 1.2 34.1
15:25 1019 30.09 848 25.04 18.5 65.2 29 0.3 32.6
15:30 1019 30.09 848 25.04 18.2 64.8 29 0 32
15:35 1019 30.09 848 25.04 18.5 65.3 29 0.4 32.8
15:40 1019 30.09 848 25.04 18.6 65.4 29 0.2 32.4
15:45 1019 30.09 848 25.04 18.3 65 30 0.6 33.1
15:50 1019 30.09 848 25.04 17.7 63.8 30 0.2 32.3
15:55 1019 30.09 848 25.04 17.8 64.1 30 0.3 32.5
16:00 1018 30.06 848 25.04 18.9 66 29 0.6 33.1
16:05 1018 30.06 848 25.04 19.2 66.6 28 0.6 33.1
16:10 1018 30.06 848 25.04 19.3 66.7 29 1 33.7
16:15 1018 30.06 848 25.04 19.1 66.3 28 0.2 32.4
16:20 1018 30.06 848 25.04 19.4 66.9 28 0.3 32.6
16:25 1018 30.06 848 25.04 19.7 67.4 27 0.5 32.8
16:30 1018 30.06 847 25.01 19.2 66.6 29 0.8 33.4
16:35 1018 30.06 847 25.01 18.9 66 29 0.5 32.9
16:40 1018 30.06 847 25.01 18.9 66 29 0.6 33.2
16:45 1018 30.06 847 25.01 18.8 65.8 29 0.3 32.5
16:50 1018 30.06 847 25.01 19 66.3 28 0.3 32.5
16:55 1018 30.06 847 25.01 19 66.1 29 0.8 33.4
17:00 1018 30.06 847 25.01 19.1 66.3 29 0.8 33.4
17:05 1018 30.06 847 25.01 18.7 65.6 29 0.3 32.6
17:10 1018 30.06 847 25.01 18.3 64.9 29 0.3 32.5
17:15 1018 30.06 847 25.01 18.2 64.7 29 -0.1 31.9
17:20 1018 30.06 847 25.01 18.6 65.5 28 0.1 32.2
17:25 1018 30.06 847 25.01 18.7 65.6 28 -0 31.9
17:30 1018 30.06 847 25.01 18.4 65.1 28 -0.3 31.5
17:35 1018 30.06 847 25.01 18.3 64.9 29 -0.1 31.7
17:40 1018 30.06 847 25.01 17.8 64.1 30 0.1 32.2
17:45 1018 30.06 847 25.01 17.6 63.6 30 0 32
17:50 1018 30.06 847 25.01 17.5 63.4 30 -0.1 31.7
17:55 1018 30.06 847 25.01 17.2 62.9 30 -0.3 31.5
18:00 1018 30.06 847 25.01 17.2 63 30 -0.4 31.3
18:05 1018 30.06 847 25.01 17.3 63.1 30 -0.3 31.4
18:10 1018 30.06 847 25.01 17.3 63.1 30 -0.3 31.4
18:15 1018 30.06 847 25.01 17.2 63 30 -0.2 31.7
18:20 1017 30.03 847 25.01 17.2 63 30 -0.2 31.6
18:25 1017 30.03 847 25.01 17.2 62.9 30 -0.3 31.5
18:30 1017 30.03 847 25.01 17.1 62.7 31 0 32.1
18:35 1017 30.03 847 25.01 17 62.6 30 -0.6 30.8
18:40 1017 30.03 847 25.01 16.9 62.5 30 -0.4 31.3
18:45 1017 30.03 847 25.01 16.8 62.2 31 -0.5 31.1
18:50 1017 30.03 847 25.01 16.8 62.2 31 -0.2 31.6
18:55 1017 30.03 847 25.01 16.7 62.1 31 -0.5 31.1
19:00 1017 30.03 847 25.01 16.6 61.8 32 -0.2 31.7
19:05 1017 30.03 847 25.01 16.5 61.6 31 -0.5 31.2
19:10 1017 30.03 847 25.01 16.4 61.5 32 -0.1 31.8
19:15 1017 30.03 847 25.01 16.2 61.2 33 0 32.1
19:20 1017 30.03 847 25.01 16.1 60.9 33 0 32.1
19:25 1017 30.03 847 25.01 15.9 60.7 33 -0 31.9
19:30 1017 30.03 847 25.01 15.8 60.4 34 0 32
19:35 1017 30.03 847 25.01 15.6 60.2 34 -0.2 31.7
19:40 1017 30.03 847 25.01 15.5 59.8 34 -0.2 31.7
19:45 1017 30.03 847 25.01 15.3 59.5 37 0.7 33.3
19:50 1017 30.03 847 25.01 14.2 57.6 44 2.1 35.8
19:55 1018 30.06 847 25.01 13.2 55.7 46 2 35.5
20:00 1018 30.06 847 25.01 12.7 54.8 47 1.8 35.3
20:05 1018 30.06 847 25.01 12.4 54.4 52 2.8 37
20:10 1018 30.06 847 25.01 12.3 54.1 50 2.1 35.7
20:15 1018 30.06 847 25.01 11.5 52.8 52 2.1 35.7
20:20 1018 30.06 847 25.01 11.5 52.6 50 1.6 34.8
20:25 1018 30.06 847 25.01 11.6 52.9 51 1.8 35.2
20:30 1018 30.06 847 25.01 11.6 52.8 52 2.1 35.8
20:35 1018 30.06 847 25.01 11.4 52.5 53 2.2 36
20:40 1018 30.06 847 25.01 11.2 52.2 54 2.2 36
20:45 1018 30.06 847 25.01 11.1 51.9 53 2 35.6
20:50 1018 30.06 847 25.01 11 51.8 54 2 35.6
20:55 1018 30.06 847 25.01 11.1 51.9 53 2 35.6
21:00 1018 30.06 847 25.01 11 51.7 54 2.2 35.9
21:05 1018 30.06 847 25.01 10.8 51.5 55 2.3 36.2
21:10 1018 30.06 847 25.01 10.6 51.2 56 2.1 35.9
21:15 1018 30.06 847 25.01 10.4 50.7 56 2 35.7
21:20 1018 30.06 847 25.01 10.3 50.6 57 2.1 35.8
21:25 1018 30.06 847 25.01 10.3 50.5 56 1.9 35.4
21:30 1018 30.06 847 25.01 10.2 50.4 58 2.4 36.2
21:35 1018 30.06 847 25.01 10.2 50.4 59 2.5 36.5
21:40 1018 30.06 847 25.01 10.1 50.1 58 2.3 36.1
21:45 1018 30.06 847 25.01 9.9 49.9 59 2.4 36.4
21:50 1018 30.06 847 25.01 9.8 49.6 60 2.4 36.3
21:55 1018 30.06 847 25.01 9.7 49.4 61 2.6 36.7
22:00 1018 30.06 847 25.01 9.7 49.4 61 2.6 36.7
22:05 1018 30.06 847 25.01 9.6 49.3 62 2.7 36.8
22:10 1018 30.06 847 25.01 9.6 49.4 62 2.8 37
22:15 1018 30.06 847 25.01 9.5 49.1 61 2.4 36.4
22:20 1018 30.06 847 25.01 9.3 48.8 63 2.7 36.8
22:25 1018 30.06 847 25.01 9.3 48.8 64 2.9 37.2
22:30 1018 30.06 847 25.01 9.3 48.7 63 2.6 36.8
22:35 1017 30.03 847 25.01 9.2 48.6 63 2.6 36.7
22:40 1018 30.06 847 25.01 9.2 48.5 64 2.7 36.9
22:45 1018 30.06 847 25.01 9 48.2 64 2.6 36.7
22:50 1018 30.06 847 25.01 9 48.2 62 2.2 35.9
22:55 1018 30.06 847 25.01 8.9 48 63 2.3 36.1
23:00 1018 30.06 847 25.01 8.7 47.6 64 2.3 36.1
23:05 1017 30.03 847 25.01 8.8 47.8 63 2.2 36
23:10 1017 30.03 847 25.01 8.7 47.6 64 2.3 36.1
23:15 1017 30.03 847 25.01 8.5 47.4 65 2.4 36.4
23:20 1017 30.03 847 25.01 8.4 47.1 66 2.5 36.5
23:25 1017 30.03 847 25.01 8.2 46.8 67 2.5 36.4
23:30 1017 30.03 847 25.01 8.2 46.8 68 2.6 36.7
23:35 1017 30.03 847 25.01 8.3 46.9 68 2.7 36.9
23:40 1017 30.03 847 25.01 8.3 47 68 2.8 37
23:45 1017 30.03 847 25.01 8.3 47 68 2.8 37.1
23:50 1017 30.03 847 25.01 8.4 47.2 68 2.8 37.1
23:55 1017 30.03 847 25.01 8.5 47.4 67 2.8 37.1
24:00 1017 30.03 847 25.01 8.5 47.3 67 2.7 36.9